Tiempo atmosférico en la estación meteorológica de Fisterra, A Coruña (230 m.)

Fecha
DESCASC
Temp. máxima en grados centígrados (hora)
DESCASC
Temp. mínima en grados centígrados (hora)
DESCASC
Temp. media en grados centígrados
DESCASC
Racha de viento máxima en m/sg (hora)
DESCASC
Velocidad máxima media en intervalos de 10 minutos(hora)
DESCASC
Precipitaciones diarias en mm
DESCASC
Precipitaciones de 00:00 a 06:00 en mm
DESCASC
Precipitaciones de 06:00 a 12:00 en mm
DESCASC
Precipitaciones de 12:00 a 18:00 en mm
DESCASC
Precipitaciones de 18:00 a 24:00 en mm
DESCASC
17-08-2017 23.7 (14:40) 18 (08:40) 20.9 8.33 (19:00) 5.28 (02:20) 0 0 0 0 0
16-08-2017 22.7 (14:10) 15.1 (01:00) 18.9 7.5 (12:00) 5.28 (11:00) 0 0 0 0 0
15-08-2017 19.1 (14:40) 15.5 (00:00) 17.3 11.39 (17:50) 8.06 (07:20) 0 0 0 0 0
14-08-2017 23.7 (02:10) 15.7 (09:20) 19.7 12.5 (16:40) 8.06 (18:00) 0 0 0 0 0
13-08-2017 29 (15:20) 15.2 (00:00) 22.1 19.44 (00:20) 12.5 (00:10) 0 0 0 0 0
12-08-2017 21.1 (15:40) 14.5 (00:00) 17.8 23.33 (22:10) 13.61 (21:20) 0 0 0 0 0
11-08-2017 21.5 (13:30) 13.7 (00:00) 17.6 20.28 (23:10) 13.61 (22:50) 0 0 0 0 0
10-08-2017 20.2 (12:50) 13.6 (00:00) 16.9 18.06 (21:20) 10.83 (15:40) 0 0 0 0 0
09-08-2017 17.7 (18:20) 13.8 (00:00) 15.8 19.44 (17:20) 11.67 (12:30) 0 0 0 0 0
08-08-2017 17.8 (15:40) 14.3 (00:00) 16 13.06 (05:00) 8.33 (04:50) 0 0 0 0 0
07-08-2017 18.2 (14:40) 14.6 (00:00) 16.4 21.39 (17:00) 13.06 (17:00) 0 0 0 0 0
06-08-2017 21.6 (14:10) 14.8 (00:00) 18.2 19.72 (20:30) 12.22 (22:50) 0 0 0 0 0
05-08-2017 19.2 (14:10) 14.7 (00:00) 17 20.83 (20:20) 12.78 (00:40) 0 0 0 0 0
04-08-2017 19.9 (16:50) 15 (00:00) 17.4 16.39 (23:40) 11.94 (23:59) 2.2 0.4 0 1.6 0.2
03-08-2017 22.1 (16:40) 15.8 (00:00) 19 14.44 (00:30) 11.11 (00:10) 1.4 1.4 0 0 0
02-08-2017 18.8 (19:20) 14.9 (00:00) 16.8 14.72 (19:50) 10.56 (21:40) 0.4 0 0 0 0.4
01-08-2017 20 (18:30) 14.4 (00:00) 17.2 8.33 (02:40) 6.39 (03:00) 0 0 0 0 0
31-07-2017 19 (16:40) 14.9 (00:00) 16.9 12.22 (15:10) 8.06 (14:50) 0 0 0 0 0
30-07-2017 20.2 (16:30) 15.5 (00:00) 17.9 12.22 (00:10) 7.22 (12:10) 0 0 0 0 0
29-07-2017 20.2 (16:10) 16.1 (00:00) 18.2 16.94 (17:40) 12.5 (14:00) 2.6 0.6 1.4 0.4 0.2
28-07-2017 19.4 (14:10) 15 (00:00) 17.2 10.28 (18:00) 7.22 (17:30) 3 0 0 1 2
27-07-2017 20.3 (18:10) 15.9 (00:00) 18.1 10.28 (12:00) 7.22 (12:00) 2.6 0.2 0.8 1.6 0
26-07-2017 20.4 (15:00) 14.2 (00:00) 17.3 17.22 (00:30) 12.22 (07:30) 0 0 0 0 0
25-07-2017 19.7 (14:40) 14.6 (00:00) 17.2 18.89 (17:40) 11.67 (17:40) 0 0 0 0 0
24-07-2017 18.6 (13:40) 15.1 (00:00) 16.9 15.56 (17:30) 9.72 (19:50) 0 0 0 0 0
23-07-2017 20.1 (15:40) 15.3 (00:00) 17.7 11.94 (22:00) 6.94 (22:10) 0 0 0 0 0
22-07-2017 18.9 (15:50) 14.4 (00:00) 16.6 11.39 (04:50) 7.78 (04:50) 2.2 0.2 2 0 0

Gráficas

Temp. máximas Temp. mínimas Temp. medias Precipitaciones Rachas de viento máximas Velocidades máximas media en intervalos de 10 minutos

Datos horarios

Fecha y hora oficial Temperatura (ºC) Velocidad del viento (km/h) Dirección del viento Racha (km/h) Dirección de racha Precipitación (mm) Presión (hPa) Tendencia (hPa) Humedad (%)
2017-08-20 23:00:00 27.5 24 Este 37 Este 0 989.5 0.3 35
2017-08-20 22:00:00 27 21 Este 39 Este 0 989.7 -0.5 39
2017-08-20 21:00:00 26.9 21 Este 41 Nordeste 0 989.3 -1.4 43
2017-08-20 20:00:00 27.4 25 Nordeste 34 Nordeste 0 989.2 -2.1 42
2017-08-20 19:00:00 28.5 21 Este 31 Nordeste 0 990.2 -1.7 40
2017-08-20 18:00:00 28 24 Nordeste 30 Nordeste 0 990.7 -1.5 42
2017-08-20 17:00:00 26.6 25 Nordeste 35 Nordeste 0 991.3 -1.2 46
2017-08-20 16:00:00 27.1 25 Nordeste 37 Nordeste 0 991.9 -0.8 46
2017-08-20 15:00:00 26.4 27 Nordeste 45 Nordeste 0 992.2 -0.8 48
2017-08-20 14:00:00 23.3 33 Nordeste 43 Nordeste 0 992.5 -0.5 56
2017-08-20 13:00:00 23.4 28 Nordeste 35 Nordeste 0 992.7 -0.5 54
2017-08-20 12:00:00 22.4 22 Nordeste 30 Nordeste 0 993 0.1 52
2017-08-20 11:00:00 21.1 21 Nordeste 33 Nordeste 0 993 0.2 54
2017-08-20 10:00:00 20 14 Nordeste 34 Nordeste 0 993.2 0.9 56
2017-08-20 09:00:00 17.8 24 Nordeste 40 Nordeste 0 992.9 0.3 64
2017-08-20 08:00:00 18 14 Nordeste 39 Este 0 992.8 -0.2 61
2017-08-20 07:00:00 17.9 31 Nordeste 46 Nordeste 0 992.3 -1.1 58
2017-08-20 06:00:00 17.3 30 Nordeste 48 Este 0 992.6 -0.9 64
2017-08-20 05:00:00 16.7 25 Nordeste 37 Nordeste 0 993 -0.9 69
2017-08-20 04:00:00 17.1 21 Este 45 Nordeste 0 993.4 -1.2 66
2017-08-20 03:00:00 16.8 32 Nordeste 55 Este 0 993.5 -1.4 73
2017-08-20 02:00:00 16.4 34 Este 50 Nordeste 0 993.9 -1.1 79
2017-08-20 01:00:00 16.3 20 Nordeste 41 Este 0 994.6 -0.2 81
2017-08-20 00:00:00 16.3 29 Nordeste 51 Este 0 994.9 0.4 83
2017-08-19 23:00:00 16.3 26 Nordeste 60 Nordeste 0 995 0.3 82
2017-08-19 22:00:00 16.6 33 Nordeste 62 Nordeste 0 994.8 0.1 80
2017-08-19 21:00:00 17.3 35 Nordeste 56 Nordeste 0 994.5 0.1 77
2017-08-19 20:00:00 19.1 24 Nordeste 43 Nordeste 0 994.7 0.2 70
2017-08-19 19:00:00 19.8 27 Nordeste 53 Nordeste 0 994.7 -0.2 67
2017-08-19 18:00:00 20.1 35 Nordeste 59 Nordeste 0 994.4 -0.1 65
2017-08-19 17:00:00 20.4 34 Nordeste 57 Nordeste 0 994.5 -0.4 63
2017-08-19 16:00:00 20 35 Nordeste 57 Norte 0 994.9 -0.3 65
2017-08-19 15:00:00 19.8 32 Nordeste 49 Norte 0 994.5 -0.8 65
2017-08-19 14:00:00 20.9 19 Nordeste 46 Nordeste 0 994.9 -0.6 62
2017-08-19 13:00:00 21 23 Nordeste 53 Nordeste 0 995.2 -0.3 61
2017-08-19 12:00:00 19.5 30 Nordeste 47 Nordeste 0 995.3 0 68
2017-08-19 11:00:00 18.3 24 Nordeste 55 Nordeste 0 995.5 0.5 74
2017-08-19 10:00:00 17.1 28 Nordeste 47 Nordeste 0 995.5 0.9 80
2017-08-19 09:00:00 16 32 Nordeste 53 Nordeste 0 995.3 0.7 83
2017-08-19 08:00:00 15.2 33 Nordeste 45 Nordeste 0 995 0.4 87
2017-08-19 07:00:00 15.2 26 Nordeste 40 Nordeste 0 994.6 -0.1 88
2017-08-19 06:00:00 15.5 24 Nordeste 39 Nordeste 0 994.6 -0.1 87
2017-08-19 05:00:00 15.5 26 Nordeste 46 Nordeste 0 994.6 -0.2 88
2017-08-19 04:00:00 15.5 26 Nordeste 46 Nordeste 0 994.7 0.3 88
2017-08-19 03:00:00 15.8 30 Nordeste 47 Nordeste 0 994.7 0.2 88
2017-08-19 02:00:00 16 30 Nordeste 51 Nordeste 0 994.8 0 88
2017-08-19 01:00:00 16.2 35 Nordeste 61 Nordeste 0 994.4 0.3 87
2017-08-19 00:00:00 16.3 32 Nordeste 57 Nordeste 0 994.5 0.9 87
2017-08-18 23:00:00 16.7 38 Nordeste 56 Nordeste 0 994.8 1.2 87
2017-08-18 22:00:00 17 35 Nordeste 54 Nordeste 0 994.1 0.5 87
2017-08-18 21:00:00 18.2 35 Nordeste 55 Nordeste 0 993.6 -0.2 83
2017-08-18 20:00:00 19.2 36 Nordeste 51 Nordeste 0 993.6 0 82
2017-08-18 19:00:00 19.5 31 Norte 48 Norte 0 993.6 -0.2 81
2017-08-18 18:00:00 19.3 29 Nordeste 54 Norte 0 993.8 -0.3 82
2017-08-18 17:00:00 19.4 33 Norte 49 Norte 0 993.6 -1 83
2017-08-18 16:00:00 20.1 31 Norte 44 Norte 0 993.8 -0.6 83
2017-08-18 15:00:00 19 27 Norte 41 Norte 0 994.1 -0.3 91
2017-08-18 14:00:00 21 20 Norte 37 Norte 0 994.6 0.7 76
2017-08-18 13:00:00 20.7 22 Norte 30 Norte 0 994.4 0.8 81
2017-08-18 12:00:00 19.5 16 Norte 22 Norte 0 994.4 1.3 92
2017-08-18 11:00:00 19.3 10 Nordeste 15 Nordeste 0 993.9 1.1 95
2017-08-18 10:00:00 18.9 10 Nordeste 19 Nordeste 0 993.6 0.6 95
2017-08-18 09:00:00 18.1 16 Nordeste 29 Nordeste 0 993.1 0.4 95
2017-08-18 08:00:00 18.2 19 Nordeste 27 Nordeste 0 992.8 0.9 95
2017-08-18 07:00:00 18.1 11 Norte 26 Noroeste 0.2 993 0.1 95
2017-08-18 06:00:00 18.3 3 Noroeste 28 Sudeste 0 992.7 -0.6 95
2017-08-18 05:00:00 18.3 11 Sudeste 24 Sudeste 0.8 991.9 -1.8 95
2017-08-18 04:00:00 18.8 18 Oeste 30 Oeste 0.2 992.9 -1.1 95
2017-08-18 03:00:00 18.7 20 Oeste 29 Oeste 0.4 993.3 -1 95
2017-08-18 02:00:00 18.5 12 Sudoeste 18 Oeste 0.4 993.7 -0.3 94
2017-08-18 01:00:00 18.7 17 Oeste 22 Oeste 0 994 0 93
2017-08-18 00:00:00 19.1 16 Oeste 19 Oeste 0 994.3 0.4 91
2017-08-17 23:00:00 19.3 7 Noroeste 24 Noroeste 0 994 0.4 90
2017-08-17 22:00:00 18.8 14 Oeste 23 Noroeste 0 994 0.5 92
2017-08-17 21:00:00 19.9 17 Oeste 27 Oeste 0 993.9 0.5 86
2017-08-17 20:00:00 21.6 17 Oeste 29 Noroeste 0 993.6 -0.2 72
2017-08-17 19:00:00 21.9 14 Oeste 30 Noroeste 0 993.5 -0.6 74
2017-08-17 18:00:00 22.6 13 Oeste 21 Oeste 0 993.4 -0.6 68
2017-08-17 17:00:00 22.6 12 Oeste 22 Oeste 0 993.8 -0.6 74
2017-08-17 16:00:00 22.8 12 Oeste 23 Oeste 0 994.1 -0.9 73
2017-08-17 15:00:00 23.1 10 Oeste 22 Oeste 0 994 -0.8 72
2017-08-17 14:00:00 22.5 8 Sudoeste 15 Sudoeste 0 994.4 -0.4 77
2017-08-17 13:00:00 21.5 8 Sudoeste 15 Sudoeste 0 995 0.4 82
2017-08-17 12:00:00 20.4 8 Sudoeste 22 Oeste 0 994.8 0.2 89
2017-08-17 11:00:00 19.5 11 Oeste 20 Sudoeste 0 994.8 0.8 94
2017-08-17 10:00:00 18.4 5 Sur 12 Sur 0 994.6 0.3 93
2017-08-17 09:00:00 18.2 8 Sudoeste 17 Sur 0 994.6 0.4 93
2017-08-17 08:00:00 18.1 9 Sur 14 Sur 0 994 -0.2 92
2017-08-17 07:00:00 18.4 7 Sudoeste 24 Oeste 0 994.3 0 90
2017-08-17 06:00:00 18.7 15 Oeste 24 Oeste 0 994.2 -0.6 84
2017-08-17 05:00:00 18.6 10 Oeste 17 Oeste 0 994.2 -0.7 83
2017-08-17 04:00:00 18.7 11 Oeste 24 Oeste 0 994.3 -0.8 82
2017-08-17 03:00:00 18.8 17 Oeste 28 Noroeste 0 994.8 -0.7 84
2017-08-17 02:00:00 18.8 17 Oeste 23 Oeste 0 994.9 -0.8 89
2017-08-17 01:00:00 18.7 13 Oeste 20 Noroeste 0 995.1 -0.6 92
2017-08-17 00:00:00 18.5 6 Sudoeste 12 Sudoeste 0 995.5 0 93
2017-08-16 23:00:00 18.6 7 Sudoeste 18 Oeste 0 995.7 0.1 92
2017-08-16 22:00:00 18.9 8 Oeste 18 Oeste 0 995.7 0 91
2017-08-16 21:00:00 19.4 12 Oeste 21 Oeste 0 995.5 -0.4 89
2017-08-16 20:00:00 19.7 14 Oeste 24 Oeste 0 995.6 -0.2 87
2017-08-16 19:00:00 20.4 17 Oeste 25 Oeste 0 995.7 -0.4 81
2017-08-16 18:00:00 19.8 12 Sudoeste 19 Sudoeste 0 995.9 -0.2 81
2017-08-16 17:00:00 19.9 13 Sur 22 Sudoeste 0 995.8 -0.4 78
2017-08-16 16:00:00 21 11 Sudoeste 22 Sudoeste 0 996.1 -0.3 72
2017-08-16 15:00:00 22.6 14 Sudoeste 21 Sudoeste 0 996.1 0.2 63
2017-08-16 14:00:00 22.4 15 Sudoeste 24 Sudoeste 0 996.2 0.6 64
2017-08-16 13:00:00 19.9 12 Sur 25 Sur 0 996.4 0.5 71
2017-08-16 12:00:00 18.9 17 Sur 27 Sur 0 995.9 0.3 75
2017-08-16 11:00:00 18 19 Sur 27 Sur 0 995.6 0.5 76
2017-08-16 10:00:00 16.5 14 Sur 25 Sur 0 995.9 1.2 78
2017-08-16 09:00:00 16 12 Sur 18 Sur 0 995.6 1.1 81
2017-08-16 08:00:00 15.4 14 Sur 19 Sudeste 0 995.1 0.8 81
2017-08-16 07:00:00 15.5 11 Sur 14 Sur 0 994.7 0.2 81
2017-08-16 06:00:00 15.6 9 Sur 11 Sur 0 994.5 -0.3 78
2017-08-16 05:00:00 15.4 8 Sur 9 Sudoeste 0 994.3 -0.7 84
2017-08-16 04:00:00 15.5 7 Sudoeste 8 Sur 0 994.5 -0.6 81
2017-08-16 03:00:00 15.2 8 Nordeste 11 Nordeste 0 994.8 -0.6 84
2017-08-16 02:00:00 15.3 10 Nordeste 14 Nordeste 0 995 -0.4 83
2017-08-16 01:00:00 15.1 13 Nordeste 20 Norte 0 995.1 0.2 84
2017-08-16 00:00:00 15.5 14 Norte 25 Norte 0 995.4 0.9 83
2017-08-15 23:00:00 15.8 18 Norte 37 Nordeste 0 995.4 1.1 81
2017-08-15 22:00:00 16 23 Norte 36 Norte 0 994.9 1 80
2017-08-15 21:00:00 16.7 23 Norte 33 Norte 0 994.5 0.7 79
2017-08-15 20:00:00 17 23 Norte 40 Norte 0 994.3 0.5 77
2017-08-15 19:00:00 18.1 24 Norte 40 Norte 0 993.9 0 74
2017-08-15 18:00:00 18.3 27 Norte 41 Norte 0 993.8 -0.2 78
2017-08-15 17:00:00 18.9 24 Norte 32 Norte 0 993.8 -0.4 76
2017-08-15 16:00:00 18 23 Norte 32 Norte 0 993.9 -0.1 79
2017-08-15 15:00:00 18.2 19 Norte 26 Norte 0 994 0.4 81
2017-08-15 14:00:00 17.7 20 Norte 27 Norte 0 994.2 0.9 83
2017-08-15 13:00:00 17.9 15 Norte 23 Norte 0 994 1.1 84
2017-08-15 12:00:00 18 15 Norte 23 Norte 0 993.6 1.2 84
2017-08-15 11:00:00 17.5 15 Norte 24 Nordeste 0 993.3 1.5 86
2017-08-15 10:00:00 16.7 17 Nordeste 30 Nordeste 0 992.9 1.6 89
2017-08-15 09:00:00 16.4 23 Nordeste 32 Nordeste 0 992.4 1.2 89
2017-08-15 08:00:00 15.8 27 Nordeste 37 Norte 0 991.8 0.5 92
2017-08-15 07:00:00 15.7 27 Nordeste 36 Norte 0 991.3 0.1 95
2017-08-15 06:00:00 15.9 22 Norte 30 Norte 0 991.2 0 94
2017-08-15 05:00:00 16.4 10 Norte 19 Norte 0 991.3 0 93
2017-08-15 04:00:00 16.4 14 Norte 20 Norte 0 991.2 -0.1 93
2017-08-15 03:00:00 16.4 15 Norte 21 Norte 0 991.2 0.1 94
2017-08-15 02:00:00 16.6 15 Norte 26 Norte 0 991.3 0.4 94
2017-08-15 01:00:00 16.7 18 Norte 28 Norte 0 991.3 1.4 94
2017-08-15 00:00:00 16.6 20 Norte 35 Norte 0 991.1 1.4 94
2017-08-14 23:00:00 16.7 21 Norte 33 Norte 0 990.9 1.5 94
2017-08-14 22:00:00 17 23 Norte 37 Norte 0 989.9 0.5 93
2017-08-14 21:00:00 17.8 18 Norte 37 Norte 0 989.7 0.6 92
2017-08-14 20:00:00 18.6 22 Norte 39 Norte 0 989.4 0.5 88
2017-08-14 19:00:00 18.7 26 Norte 41 Norte 0 989.4 0.6 88
2017-08-14 18:00:00 19.1 29 Norte 44 Norte 0 989.1 0.4 88
2017-08-14 17:00:00 17.8 26 Norte 45 Norte 0 988.9 0.4 92
2017-08-14 16:00:00 17.7 26 Norte 39 Norte 0 988.8 0.5 92
2017-08-14 15:00:00 17.7 21 Norte 37 Norte 0 988.7 0.6 91
2017-08-14 14:00:00 19.3 18 Norte 29 Norte 0 988.5 1 85
2017-08-14 13:00:00 18 19 Norte 26 Norte 0 988.3 1.3 92
2017-08-14 12:00:00 17.8 12 Norte 26 Norte 0 988.1 1 93
2017-08-14 11:00:00 17.1 15 Norte 29 Norte 0 987.5 1.6 93
2017-08-14 10:00:00 16.8 11 Noroeste 22 Sudoeste 0 987 1.4 91
2017-08-14 09:00:00 16.4 11 Sudoeste 16 Oeste 0 987.1 1.4 84
2017-08-14 08:00:00 17.7 4 Sudoeste 9 Noroeste 0 985.9 0.2 76
2017-08-14 07:00:00 16.9 6 Norte 10 Norte 0 985.6 -0.1 80
2017-08-14 06:00:00 16.9 3 Nordeste 24 Sudeste 0 985.7 -0.2 79
2017-08-14 05:00:00 19.1 15 Sudeste 23 Sur 0 985.7 -0.2 68
2017-08-14 04:00:00 19.9 16 Sur 23 Sur 0 985.7 -0.7 64
2017-08-14 03:00:00 21.5 15 Sudeste 18 Sudeste 0 985.9 -1 61
2017-08-14 02:00:00 23.6 8 Sur 14 Este 0 985.9 -1 53
2017-08-14 01:00:00 22 12 Nordeste 26 Nordeste 0 986.4 -0.2 58
2017-08-14 00:00:00 21.7 15 Nordeste 31 Nordeste 0 986.9 0.5 59
2017-08-13 23:00:00 18.2 24 Nordeste 31 Nordeste 0 986.9 0.5 74
2017-08-13 22:00:00 25.2 20 Este 43 Este 0 986.6 -0.3 43
2017-08-13 21:00:00 23.3 27 Este 38 Este 0 986.4 -0.8 56
2017-08-13 20:00:00 24.3 23 Nordeste 34 Nordeste 0 986.4 -1.1 55
2017-08-13 19:00:00 24.4 23 Nordeste 29 Nordeste 0 986.9 -0.9 55
2017-08-13 18:00:00 25.8 17 Nordeste 27 Nordeste 0 987.2 -1 52
2017-08-13 17:00:00 26.9 17 Nordeste 26 Nordeste 0 987.5 -1.2 49
2017-08-13 16:00:00 26.3 19 Nordeste 28 Nordeste 0 987.8 -1.4 49
2017-08-13 15:00:00 27.5 15 Nordeste 30 Nordeste 0 988.2 -1.2 46
2017-08-13 14:00:00 27 21 Nordeste 39 Nordeste 0 988.7 -0.8 46
2017-08-13 13:00:00 24.2 15 Nordeste 30 Nordeste 0 989.2 -0.7 51
2017-08-13 12:00:00 23.1 20 Este 44 Este 0 989.4 -0.5 54
2017-08-13 11:00:00 20.3 34 Este 52 Nordeste 0 989.5 -0.5 59
2017-08-13 10:00:00 17.9 29 Nordeste 42 Nordeste 0 989.9 -0.4 68
2017-08-13 09:00:00 16.5 28 Nordeste 54 Nordeste 0 989.9 -0.5 73
2017-08-13 08:00:00 15.7 36 Nordeste 51 Nordeste 0 990 -0.7 76
2017-08-13 07:00:00 15.3 38 Nordeste 53 Nordeste 0 990.3 -1.1 80
2017-08-13 06:00:00 15.4 27 Nordeste 54 Nordeste 0 990.4 -1.5 79
2017-08-13 05:00:00 15.4 32 Nordeste 52 Nordeste 0 990.7 -1.5 79
2017-08-13 04:00:00 15.7 28 Nordeste 48 Nordeste 0 991.4 -0.8 78
2017-08-13 03:00:00 15.7 33 Nordeste 62 Nordeste 0 991.9 -0.2 79
2017-08-13 02:00:00 15.9 36 Nordeste 65 Nordeste 0 992.2 -0.3 80
2017-08-13 01:00:00 16.2 42 Nordeste 70 Nordeste 0 992.2 0 80
2017-08-13 00:00:00 16.3 44 Nordeste 69 Nordeste 0 992.1 -0.2 78
2017-08-12 23:00:00 16.5 42 Nordeste 84 Nordeste 0 992.5 -0.1 79
2017-08-12 22:00:00 16.6 41 Nordeste 72 Nordeste 0 992.2 -0.9 78
2017-08-12 21:00:00 17.7 45 Nordeste 65 Nordeste 0 992.3 -1.2 70
2017-08-12 20:00:00 19.9 42 Nordeste 66 Nordeste 0 992.6 -0.9 62
2017-08-12 19:00:00 20.7 30 Nordeste 54 Nordeste 0 993.1 -0.5 65
2017-08-12 18:00:00 20.6 25 Nordeste 63 Norte 0 993.5 -0.4 66
2017-08-12 17:00:00 19.5 40 Norte 66 Nordeste 0 993.5 -0.7 71
2017-08-12 16:00:00 20.1 39 Nordeste 56 Nordeste 0 993.6 -0.7 67
2017-08-12 15:00:00 20 38 Nordeste 55 Norte 0 993.9 -0.6 68
2017-08-12 14:00:00 20 37 Nordeste 55 Nordeste 0 994.2 -0.3 67
2017-08-12 13:00:00 20.3 32 Nordeste 51 Nordeste 0 994.3 0 63
2017-08-12 12:00:00 19.7 26 Nordeste 40 Nordeste 0 994.5 0.8 62
2017-08-12 11:00:00 18.8 28 Nordeste 55 Nordeste 0 994.5 0.9 65
2017-08-12 10:00:00 17 32 Nordeste 64 Nordeste 0 994.3 0.9 75
2017-08-12 09:00:00 15.5 39 Nordeste 64 Nordeste 0 993.7 0.1 79
2017-08-12 08:00:00 14.7 39 Nordeste 62 Nordeste 0 993.6 -0.1 82
2017-08-12 07:00:00 14.6 36 Nordeste 58 Nordeste 0 993.4 -0.7 82
2017-08-12 06:00:00 14.6 31 Nordeste 59 Nordeste 0 993.6 -1.3 81
2017-08-12 05:00:00 14.8 41 Nordeste 62 Nordeste 0 993.7 -1.4 81
2017-08-12 04:00:00 14.9 40 Nordeste 63 Nordeste 0 994.1 -1 81
2017-08-12 03:00:00 15.2 32 Este 54 Nordeste 0 994.9 -0.7 81
2017-08-12 02:00:00 15.2 30 Nordeste 58 Nordeste 0 995.1 0.1 81
2017-08-12 01:00:00 15.2 36 Nordeste 62 Nordeste 0 995.1 0.1 82
2017-08-12 00:00:00 15.3 32 Nordeste 73 Nordeste 0 995.6 0.8 81
2017-08-11 23:00:00 15.7 48 Nordeste 69 Nordeste 0 995 0 79
2017-08-11 22:00:00 16.2 42 Nordeste 58 Nordeste 0 995 0 77
2017-08-11 21:00:00 17.8 36 Nordeste 57 Nordeste 0 994.8 -0.7 71
2017-08-11 20:00:00 18.9 30 Nordeste 55 Nordeste 0 995 -0.4 68
2017-08-11 19:00:00 19.6 32 Nordeste 55 Nordeste 0 995 -0.7 66
2017-08-11 18:00:00 20 31 Nordeste 55 Norte 0 995.5 -0.6 65
2017-08-11 17:00:00 20.1 35 Nordeste 54 Nordeste 0 995.4 -0.8 64
2017-08-11 16:00:00 20 38 Nordeste 57 Nordeste 0 995.7 -0.9 64
2017-08-11 15:00:00 19.9 32 Nordeste 47 Nordeste 0 996.1 -0.2 64
2017-08-11 14:00:00 20.5 26 Nordeste 46 Nordeste 0 996.2 0.2 59
2017-08-11 13:00:00 20.9 19 Nordeste 51 Nordeste 0 996.6 0.5 53
2017-08-11 12:00:00 19.8 30 Nordeste 48 Nordeste 0 996.3 0.4 57
2017-08-11 11:00:00 18.4 27 Nordeste 46 Nordeste 0 996 0.1 63
2017-08-11 10:00:00 16.4 23 Nordeste 53 Nordeste 0 996.1 0.6 72
2017-08-11 09:00:00 14.9 26 Nordeste 54 Nordeste 0 995.9 0.2 78
2017-08-11 08:00:00 14 31 Nordeste 56 Nordeste 0 995.9 -0.3 82
2017-08-11 07:00:00 14 35 Nordeste 60 Nordeste 0 995.5 -1.3 81
2017-08-11 06:00:00 13.9 31 Nordeste 54 Este 0 995.7 -1.4 82
2017-08-11 05:00:00 13.8 29 Nordeste 51 Nordeste 0 996.2 -1.7 83
2017-08-11 04:00:00 13.8 24 Nordeste 49 Nordeste 0 996.8 -1 83
2017-08-11 03:00:00 14.1 25 Nordeste 52 Nordeste 0 997.1 -1 82
2017-08-11 02:00:00 14.1 24 Nordeste 54 Nordeste 0 997.9 -0.1 82
2017-08-11 01:00:00 14.4 31 Nordeste 58 Nordeste 0 997.8 -0.3 80
2017-08-11 00:00:00 14.6 36 Nordeste 61 Nordeste 0 998.1 0 79
2017-08-10 23:00:00 14.8 35 Nordeste 58 Nordeste 0 998 -0.3 78
2017-08-10 22:00:00 15.3 31 Nordeste 65 Nordeste 0 998.1 0 74
2017-08-10 21:00:00 16.6 33 Nordeste 61 Nordeste 0 998.1 -0.4 71
2017-08-10 20:00:00 18 27 Nordeste 54 Nordeste 0 998.3 -0.6 67
2017-08-10 19:00:00 18.5 32 Nordeste 55 Nordeste 0 998.1 -1.2 64
2017-08-10 18:00:00 18.8 34 Nordeste 55 Nordeste 0 998.5 -1.1 62
2017-08-10 17:00:00 19.2 33 Nordeste 62 Nordeste 0 998.9 -1.4 60
2017-08-10 16:00:00 18.9 37 Norte 59 Norte 0 999.3 -1.2 58
2017-08-10 15:00:00 19 34 Norte 52 Nordeste 0 999.6 -0.9 59
2017-08-10 14:00:00 18.7 27 Nordeste 51 Norte 0 1000.3 -0.2 57
2017-08-10 13:00:00 19.5 21 Nordeste 50 Nordeste 0 1000.5 0 52
2017-08-10 12:00:00 18.4 25 Nordeste 50 Nordeste 0 1000.5 0.4 57
2017-08-10 11:00:00 16.6 22 Nordeste 37 Nordeste 0 1000.5 0.4 67
2017-08-10 10:00:00 15.9 24 Nordeste 48 Nordeste 0 1000.5 0.4 73
2017-08-10 09:00:00 14.6 27 Nordeste 48 Nordeste 0 1000.1 0.2 80
2017-08-10 08:00:00 13.8 25 Nordeste 41 Este 0 1000.1 0 82
2017-08-10 07:00:00 13.9 19 Nordeste 33 Nordeste 0 1000.1 0 84
2017-08-10 06:00:00 14.1 22 Nordeste 41 Nordeste 0 999.9 -0.4 82
2017-08-10 05:00:00 14 29 Nordeste 37 Nordeste 0 1000.1 -0.3 81
2017-08-10 04:00:00 14 21 Nordeste 33 Nordeste 0 1000.1 -0.1 78
2017-08-10 03:00:00 13.9 21 Nordeste 36 Nordeste 0 1000.3 0.4 78
2017-08-10 02:00:00 14.2 24 Nordeste 41 Nordeste 0 1000.4 1 79
2017-08-10 01:00:00 14.4 23 Nordeste 38 Nordeste 0 1000.2 1.3 77
2017-08-10 00:00:00 14.3 22 Nordeste 40 Este 0 999.9 1.5 78
2017-08-09 23:00:00 14.6 26 Nordeste 51 Nordeste 0 999.4 1.3 77
2017-08-09 22:00:00 15 30 Nordeste 53 Nordeste 0 998.9 1 74
2017-08-09 21:00:00 16.2 33 Nordeste 62 Nordeste 0 998.4 0.5 67
2017-08-09 20:00:00 16.9 33 Nordeste 60 Norte 0 998.1 0.5 63
2017-08-09 19:00:00 17.2 37 Norte 62 Nordeste 0 997.9 0 63
2017-08-09 18:00:00 17.4 37 Norte 70 Norte 0 997.9 0.4 62
2017-08-09 17:00:00 17.2 39 Norte 66 Norte 0 997.6 0 65
2017-08-09 16:00:00 17 35 Norte 67 Norte 0 997.9 0.5 68
2017-08-09 15:00:00 16.9 40 Norte 66 Norte 0 997.5 0.2 60
2017-08-09 14:00:00 16.7 39 Norte 67 Norte 0 997.6 0.9 62
2017-08-09 13:00:00 16.4 39 Norte 65 Nordeste 0 997.4 1 58
2017-08-09 12:00:00 16.2 37 Norte 64 Nordeste 0 997.3 1.5 62
2017-08-09 11:00:00 15.8 36 Nordeste 57 Nordeste 0 996.7 1.3 60
2017-08-09 10:00:00 15.2 32 Nordeste 51 Nordeste 0 996.4 1.4 64
2017-08-09 09:00:00 15.3 25 Nordeste 40 Nordeste 0 995.8 1.2 67
2017-08-09 08:00:00 14 31 Nordeste 45 Nordeste 0 995.4 0.9 74
2017-08-09 07:00:00 14.1 28 Nordeste 44 Nordeste 0 995 0.3 79
2017-08-09 06:00:00 14.4 26 Nordeste 49 Norte 0 994.6 -0.2 75
2017-08-09 05:00:00 14.3 28 Nordeste 51 Nordeste 0 994.5 -0.7 77
2017-08-09 04:00:00 14.7 25 Norte 41 Nordeste 0 994.7 -0.7 79
2017-08-09 03:00:00 14.5 30 Norte 45 Nordeste 0 994.8 -0.8 77
2017-08-09 02:00:00 14.1 26 Norte 44 Norte 0 995.2 -0.4 82
2017-08-09 01:00:00 15 20 Norte 35 Norte 0 995.4 0.2 76
2017-08-09 00:00:00 14.7 21 Norte 32 Norte 0 995.6 0.5 77
2017-08-08 23:00:00 14.7 25 Norte 37 Norte 0 995.6 0.8 81
2017-08-08 22:00:00 15 20 Norte 32 Norte 0 995.2 0.2 78
2017-08-08 21:00:00 15.9 19 Norte 31 Noroeste 0 995.1 0.2 76
2017-08-08 20:00:00 16.2 17 Norte 34 Norte 0 994.8 -0.2 71
2017-08-08 19:00:00 15.9 25 Norte 42 Norte 0 995 0 68
2017-08-08 18:00:00 16.7 26 Norte 41 Norte 0 994.9 -0.2 70
2017-08-08 17:00:00 17.1 26 Norte 39 Noroeste 0 995 -0.2 68
2017-08-08 16:00:00 17.7 24 Norte 40 Norte 0 995 -0.5 71
2017-08-08 15:00:00 17.7 22 Norte 35 Norte 0 995.1 -0.3 70
2017-08-08 14:00:00 16.1 27 Norte 43 Noroeste 0 995.2 0.3 78
2017-08-08 13:00:00 17.1 22 Norte 32 Norte 0 995.5 0.8 70
2017-08-08 12:00:00 17.3 15 Norte 27 Norte 0 995.4 0.8 70
2017-08-08 11:00:00 16.8 19 Norte 32 Norte 0 994.9 0.6 69
2017-08-08 10:00:00 16.2 20 Nordeste 36 Norte 0 994.7 0.9 71
2017-08-08 09:00:00 15.1 25 Norte 42 Norte 0 994.6 1.2 74
2017-08-08 08:00:00 14.3 23 Norte 41 Norte 0 994.3 0.9 82
2017-08-08 07:00:00 14.5 27 Norte 41 Norte 0 993.8 0.5 84
2017-08-08 06:00:00 14.8 27 Norte 43 Norte 0 993.4 0.1 82
2017-08-08 05:00:00 14.5 30 Norte 47 Norte 0 993.4 -0.3 84
2017-08-08 04:00:00 14.5 28 Nordeste 40 Norte 0 993.3 -0.5 83
2017-08-08 03:00:00 14.5 27 Nordeste 37 Nordeste 0 993.3 -0.3 85
2017-08-08 02:00:00 14.9 24 Norte 37 Norte 0 993.7 0.1 83
2017-08-08 01:00:00 15 25 Norte 35 Norte 0 993.8 0.9 81
2017-08-08 00:00:00 14.8 25 Nordeste 33 Norte 0 993.6 1.1 81
2017-08-07 23:00:00 14.9 23 Nordeste 41 Nordeste 0 993.6 1.7 82
2017-08-07 22:00:00 15.1 27 Norte 48 Norte 0 992.9 1.5 81
2017-08-07 21:00:00 15.9 31 Norte 54 Nordeste 0 992.5 1.1 75
2017-08-07 20:00:00 16.5 32 Norte 63 Norte 0 991.9 0.9 73
2017-08-07 19:00:00 17.4 33 Norte 62 Norte 0 991.4 0.5 66
2017-08-07 18:00:00 17.2 35 Norte 69 Norte 0 991.4 0.3 68
2017-08-07 17:00:00 16.9 47 Norte 77 Norte 0 991 -0.4 70
2017-08-07 16:00:00 17.2 44 Norte 66 Norte 0 990.9 -0.3 69
2017-08-07 15:00:00 17.6 34 Norte 53 Nordeste 0 991.1 0.4 70
2017-08-07 14:00:00 17.3 33 Norte 55 Nordeste 0 991.4 1.5 75
2017-08-07 13:00:00 17 31 Nordeste 58 Nordeste 0 991.2 1.5 76
2017-08-07 12:00:00 15.9 31 Nordeste 58 Nordeste 0 990.7 1.6 84
2017-08-07 11:00:00 15.4 36 Nordeste 61 Nordeste 0 989.9 0.9 88
2017-08-07 10:00:00 15 38 Nordeste 72 Nordeste 0 989.7 0.9 91
2017-08-07 09:00:00 15.2 42 Nordeste 71 Nordeste 0 989.1 0.6 90
2017-08-07 08:00:00 15 39 Nordeste 65 Nordeste 0 989 0 89
2017-08-07 07:00:00 15.3 41 Nordeste 62 Nordeste 0 988.8 -0.4 86
2017-08-07 06:00:00 15.5 39 Nordeste 63 Nordeste 0 988.5 -1 85
2017-08-07 05:00:00 15.5 35 Nordeste 58 Nordeste 0 989 -0.7 85
2017-08-07 04:00:00 15.4 38 Nordeste 58 Nordeste 0 989.2 -0.7 84
2017-08-07 03:00:00 15.5 38 Nordeste 54 Nordeste 0 989.5 -0.8 81
2017-08-07 02:00:00 15.4 36 Nordeste 62 Nordeste 0 989.7 -0.4 80
2017-08-07 01:00:00 15.5 37 Nordeste 59 Nordeste 0 989.9 0 80
2017-08-07 00:00:00 15.6 32 Nordeste 68 Nordeste 0 990.3 0.6 81
2017-08-06 23:00:00 15.8 42 Nordeste 67 Nordeste 0 990.1 -0.2 82
2017-08-06 22:00:00 16.2 41 Nordeste 69 Nordeste 0 989.9 -1.1 81
2017-08-06 21:00:00 17.6 42 Nordeste 71 Nordeste 0 989.7 -1.5 73
2017-08-06 20:00:00 19 33 Nordeste 58 Nordeste 0 990.3 -1.1 66
2017-08-06 19:00:00 19.4 30 Nordeste 57 Norte 0 991 -1.1 64
2017-08-06 18:00:00 19.6 36 Norte 60 Nordeste 0 991.2 -1.4 64
2017-08-06 17:00:00 19.8 33 Nordeste 62 Norte 0 991.4 -1.7 62
2017-08-06 16:00:00 20 31 Nordeste 60 Nordeste 0 992.1 -1.6 62
2017-08-06 15:00:00 20.8 26 Nordeste 60 Nordeste 0 992.6 -1.4 58
2017-08-06 14:00:00 20.9 28 Nordeste 63 Nordeste 0 993.1 -1.2 57
2017-08-06 13:00:00 20.4 28 Nordeste 67 Nordeste 0 993.7 -0.8 56
2017-08-06 12:00:00 18.2 35 Nordeste 61 Nordeste 0 994 -0.6 62
2017-08-06 11:00:00 17.9 27 Nordeste 60 Nordeste 0 994.3 -0.2 67
2017-08-06 10:00:00 17.2 28 Nordeste 54 Nordeste 0 994.5 -0.2 70
2017-08-06 09:00:00 16.1 31 Nordeste 55 Nordeste 0 994.6 -0.2 76
2017-08-06 08:00:00 15.2 34 Nordeste 56 Nordeste 0 994.5 -0.2 81
2017-08-06 07:00:00 15.1 28 Nordeste 46 Nordeste 0 994.7 -0.4 83
2017-08-06 06:00:00 15 26 Nordeste 54 Nordeste 0 994.8 -0.5 82
2017-08-06 05:00:00 14.9 30 Nordeste 51 Nordeste 0 994.7 -0.8 83
2017-08-06 04:00:00 15.1 28 Nordeste 56 Nordeste 0 995.1 -0.5 81
2017-08-06 03:00:00 15 30 Nordeste 51 Nordeste 0 995.3 -0.4 81
2017-08-06 02:00:00 14.9 32 Nordeste 61 Nordeste 0 995.5 -0.3 81
2017-08-06 01:00:00 14.9 32 Nordeste 69 Nordeste 0 995.6 0.4 79
2017-08-06 00:00:00 15.1 37 Nordeste 61 Nordeste 0 995.7 0.7 78
2017-08-05 23:00:00 15.5 36 Nordeste 63 Nordeste 0 995.8 1.2 81
2017-08-05 22:00:00 15.6 37 Nordeste 66 Nordeste 0 995.2 0.4 78
2017-08-05 21:00:00 16.5 38 Nordeste 75 Nordeste 0 995 0.4 73
2017-08-05 20:00:00 17.4 37 Nordeste 65 Nordeste 0 994.6 0.1 68
2017-08-05 19:00:00 18.3 35 Nordeste 63 Nordeste 0 994.8 -0.1 66
2017-08-05 18:00:00 18.7 35 Nordeste 64 Nordeste 0 994.6 -0.6 65
2017-08-05 17:00:00 18.9 39 Nordeste 66 Nordeste 0 994.5 -0.8 66
2017-08-05 16:00:00 18.9 33 Nordeste 59 Nordeste 0 994.9 -0.4 67
2017-08-05 15:00:00 18.4 31 Nordeste 57 Norte 0 995.2 0.1 71
2017-08-05 14:00:00 18.1 36 Nordeste 59 Nordeste 0 995.3 0.5 73
2017-08-05 13:00:00 18.3 32 Nordeste 63 Nordeste 0 995.3 0.6 72
2017-08-05 12:00:00 17.5 31 Nordeste 53 Nordeste 0 995.1 0.9 77
2017-08-05 11:00:00 17 33 Nordeste 57 Nordeste 0 994.8 1 81
2017-08-05 10:00:00 17 26 Nordeste 45 Nordeste 0 994.7 1.1 83
2017-08-05 09:00:00 15.8 30 Nordeste 45 Nordeste 0 994.2 0.9 88
2017-08-05 08:00:00 14.9 27 Nordeste 48 Nordeste 0 993.8 0.5 93
2017-08-05 07:00:00 15 30 Nordeste 47 Nordeste 0 993.6 0.6 92
2017-08-05 06:00:00 15 30 Nordeste 44 Nordeste 0 993.3 0.3 93
2017-08-05 05:00:00 15 32 Nordeste 49 Nordeste 0 993.3 0.4 91
2017-08-05 04:00:00 15.3 40 Nordeste 54 Nordeste 0 993 0.2 91
2017-08-05 03:00:00 15.4 42 Nordeste 55 Norte 0 993 0.3 93
2017-08-05 02:00:00 15.1 39 Nordeste 54 Nordeste 0 992.9 0.4 95
2017-08-05 01:00:00 15.6 42 Norte 61 Nordeste 0 992.8 1 91
2017-08-05 00:00:00 15 43 Nordeste 59 Norte 0.2 992.7 1.3 96
2017-08-04 23:00:00 15.9 30 Nordeste 49 Nordeste 0 992.5 1.1 96
2017-08-04 22:00:00 16.1 34 Nordeste 50 Nordeste 0 991.8 0.3 96
2017-08-04 21:00:00 16.8 33 Nordeste 46 Nordeste 0 991.4 -0.3 95
2017-08-04 20:00:00 17.4 27 Nordeste 32 Nordeste 0 991.4 -0.3 95
2017-08-04 19:00:00 19 17 Nordeste 26 Noroeste 0 991.5 -0.3 95
2017-08-04 18:00:00 19.7 18 Oeste 26 Oeste 0.2 991.7 -0.2 95
2017-08-04 17:00:00 19.8 17 Sudoeste 28 Sudoeste 0.4 991.7 -0.1 94
2017-08-04 16:00:00 19.6 21 Sudoeste 37 Sudoeste 0 991.8 0 94
2017-08-04 15:00:00 19.2 28 Sudoeste 42 Sudoeste 0.2 991.9 -0.1 95
2017-08-04 14:00:00 18.9 31 Sudoeste 44 Sudoeste 0.4 991.8 0.2 95
2017-08-04 13:00:00 18.8 32 Sudoeste 43 Sudoeste 0.4 991.8 0.2 95
2017-08-04 12:00:00 19.2 29 Sudoeste 40 Sudoeste 0 992 0.8 95
2017-08-04 11:00:00 19.1 28 Sudoeste 44 Sudoeste 0 991.6 0.6 95
2017-08-04 10:00:00 19.1 30 Sudoeste 41 Sudoeste 0 991.6 0.7 95
2017-08-04 09:00:00 18.9 27 Sudoeste 35 Sudoeste 0 991.2 0.4 95
2017-08-04 08:00:00 18.6 26 Sudoeste 37 Sudoeste 0 991 -0.1 95
2017-08-04 07:00:00 18.4 27 Sudoeste 37 Sudoeste 0 990.9 -0.2 95
2017-08-04 06:00:00 18.5 25 Sudoeste 35 Sudoeste 0 990.8 -0.6 95
2017-08-04 05:00:00 18.9 24 Sudoeste 35 Sudoeste 0 991.1 -0.6 95
2017-08-04 04:00:00 18.7 24 Sudoeste 35 Sudoeste 0.2 991.1 -0.8 95
2017-08-04 03:00:00 18.6 29 Sudoeste 38 Sudoeste 0.2 991.4 -0.6 95
2017-08-04 02:00:00 18.3 31 Sudoeste 41 Sudoeste 0 991.7 -0.3 95
2017-08-04 01:00:00 17.6 31 Sudoeste 43 Sur 0 991.9 0.2 94
2017-08-04 00:00:00 17.8 35 Sudoeste 49 Sur 0 992 0.2 93
2017-08-03 23:00:00 17.9 28 Sur 48 Sudoeste 0 992 0.1 92
2017-08-03 22:00:00 18.1 31 Sur 48 Sudoeste 0 991.7 -0.4 90
2017-08-03 21:00:00 18.2 24 Sur 41 Sudoeste 0 991.8 -0.8 87
2017-08-03 20:00:00 18.4 26 Sur 38 Sudoeste 0 991.9 -0.9 88
2017-08-03 19:00:00 19 20 Sur 37 Sur 0 992.1 -1 87
2017-08-03 18:00:00 21.2 17 Sur 35 Sudoeste 0 992.6 -0.5 81
2017-08-03 17:00:00 21.7 16 Sur 32 Sur 0 992.8 -0.5 74
2017-08-03 16:00:00 21.6 17 Sur 29 Sur 0 993.1 -0.5 74
2017-08-03 15:00:00 21.2 15 Sur 28 Sur 0 993.1 -0.5 79
2017-08-03 14:00:00 20.9 15 Sur 25 Sudoeste 0 993.3 -0.5 82
2017-08-03 13:00:00 19.8 12 Sur 22 Sudoeste 0 993.6 0.1 84
2017-08-03 12:00:00 19.2 11 Sur 20 Sur 0 993.6 1 87
2017-08-03 11:00:00 19.2 7 Sudoeste 13 Sur 0 993.8 1.3 87
2017-08-03 10:00:00 18.3 7 Sudoeste 11 Sudoeste 0 993.5 1.4 88
2017-08-03 09:00:00 17.9 5 Oeste 13 Oeste 0 992.6 0.6 86
2017-08-03 08:00:00 16.9 10 Norte 18 Norte 0 992.5 0.8 90
2017-08-03 07:00:00 15.9 8 Norte 14 Norte 0 992.1 0.3 92
2017-08-03 06:00:00 17.6 10 Noroeste 25 Oeste 0 992 0.1 95
2017-08-03 05:00:00 18.3 14 Oeste 24 Oeste 0 991.7 -0.7 95
2017-08-03 04:00:00 18.1 21 Oeste 37 Sudoeste 0.4 991.8 -0.4 94
2017-08-03 03:00:00 17.5 29 Sudoeste 48 Sudoeste 0.4 991.9 -0.6 94
2017-08-03 02:00:00 17.7 31 Sudoeste 50 Sudoeste 0.4 992.4 -0.5 94
2017-08-03 01:00:00 17.6 38 Sudoeste 52 Sudoeste 0.2 992.2 -0.2 94
2017-08-03 00:00:00 17.9 38 Sudoeste 53 Sudoeste 0.4 992.5 0.6 94
2017-08-02 23:00:00 17.9 35 Sudoeste 46 Sudoeste 0 992.9 1.1 93
2017-08-02 22:00:00 17.9 35 Sudoeste 50 Sudoeste 0 992.4 0.7 93
2017-08-02 21:00:00 18.1 36 Sudoeste 49 Sudoeste 0 991.9 0 91
2017-08-02 20:00:00 18.2 37 Sudoeste 53 Sudoeste 0 991.8 0 89
2017-08-02 19:00:00 18.2 35 Sudoeste 51 Sudoeste 0 991.7 -0.6 88
2017-08-02 18:00:00 17.7 34 Sudoeste 49 Sudoeste 0 991.9 -0.6 88
2017-08-02 17:00:00 18.1 32 Sudoeste 47 Sudoeste 0 991.8 -0.9 85
2017-08-02 16:00:00 17.1 28 Sur 44 Sudoeste 0 992.3 -0.6 88
2017-08-02 15:00:00 17.4 28 Sur 48 Sudoeste 0 992.5 -0.5 84
2017-08-02 14:00:00 17.8 28 Sur 49 Sudoeste 0 992.7 -0.2 78
2017-08-02 13:00:00 17.7 26 Sur 47 Sur 0 992.9 0.4 78
2017-08-02 12:00:00 17.7 21 Sur 45 Sur 0 993 0.9 81
2017-08-02 11:00:00 16.6 26 Sur 42 Sur 0 992.9 0.7 84
2017-08-02 10:00:00 16.4 22 Sur 40 Sur 0 992.5 0.4 85
2017-08-02 09:00:00 15.7 22 Sur 34 Sur 0 992.1 0.2 89
2017-08-02 08:00:00 15.2 19 Sur 33 Sur 0 992.2 0.2 91
2017-08-02 07:00:00 15 22 Sur 31 Sur 0 992.1 -0.2 91
2017-08-02 06:00:00 15.3 20 Sur 30 Sur 0 991.9 -0.7 88
2017-08-02 05:00:00 15.5 19 Sur 27 Sur 0 992 -1.2 87
2017-08-02 04:00:00 15.7 15 Sur 24 Sur 0 992.3 -1 86
2017-08-02 03:00:00 15.5 15 Sudoeste 19 Sudoeste 0 992.6 -0.8 86
2017-08-02 02:00:00 15.2 13 Sudoeste 15 Sudoeste 0 993.2 -0.2 85
2017-08-02 01:00:00 15.6 10 Sudoeste 15 Oeste 0 993.3 0.6 83
2017-08-02 00:00:00 16.2 13 Oeste 19 Noroeste 0 993.4 1.2 80
2017-08-01 23:00:00 16.3 9 Noroeste 18 Noroeste 0 993.4 1.5 80
2017-08-01 22:00:00 16.7 12 Noroeste 23 Noroeste 0 992.7 1 77
2017-08-01 21:00:00 18.5 14 Noroeste 23 Noroeste 0 992.2 0.4 71
2017-08-01 20:00:00 19.4 13 Noroeste 26 Noroeste 0 991.9 0.2 69
2017-08-01 19:00:00 19.5 13 Noroeste 27 Noroeste 0 991.7 0.2 69
2017-08-01 18:00:00 19.7 13 Noroeste 27 Noroeste 0 991.8 0.7 70
2017-08-01 17:00:00 19.1 15 Norte 26 Noroeste 0 991.7 0.5 70
2017-08-01 16:00:00 18.7 16 Norte 27 Norte 0 991.5 0.5 73
2017-08-01 15:00:00 18.4 17 Norte 26 Norte 0 991.1 0.2 75
2017-08-01 14:00:00 17.7 19 Norte 30 Norte 0 991.2 0.5 78
2017-08-01 13:00:00 17.6 15 Norte 24 Norte 0 991 0.7 80
2017-08-01 12:00:00 17.5 16 Norte 22 Norte 0 990.9 1 80
2017-08-01 11:00:00 17.2 14 Norte 20 Nordeste 0 990.7 1.6 79
2017-08-01 10:00:00 17.2 12 Nordeste 21 Nordeste 0 990.3 1.5 77
2017-08-01 09:00:00 17 9 Este 22 Este 0 989.9 1.2 75
2017-08-01 08:00:00 15.7 12 Este 21 Este 0 989.1 0.5 79
2017-08-01 07:00:00 14.7 14 Este 18 Este 0 988.8 0.2 83
2017-08-01 06:00:00 14.4 15 Este 24 Este 0 988.7 0.1 84
2017-08-01 05:00:00 14.7 18 Este 24 Este 0 988.6 -0.4 85
2017-08-01 04:00:00 15.1 14 Nordeste 30 Este 0 988.6 -0.2 81
2017-08-01 03:00:00 15 23 Nordeste 30 Nordeste 0 988.6 -0.3 84
2017-08-01 02:00:00 15.1 20 Nordeste 28 Nordeste 0 989 0.4 83
2017-08-01 01:00:00 15 19 Nordeste 26 Nordeste 0 988.8 0.8 85
2017-08-01 00:00:00 15.4 19 Nordeste 31 Nordeste 0 988.9 1.2 85
2017-07-31 23:00:00 15.5 24 Nordeste 30 Norte 0 988.6 1.2 83
2017-07-31 22:00:00 15.9 19 Norte 33 Norte 0 988 0.7 82
2017-07-31 21:00:00 17.2 21 Norte 38 Norte 0 987.7 0.5 77
2017-07-31 20:00:00 17.7 26 Norte 43 Norte 0 987.4 0.2 74
2017-07-31 19:00:00 17.7 28 Norte 41 Norte 0 987.3 -0.2 76
2017-07-31 18:00:00 18.2 22 Norte 37 Norte 0 987.2 -0.1 73
2017-07-31 17:00:00 18.8 24 Norte 41 Norte 0 987.2 -0.2 72
2017-07-31 16:00:00 18.4 26 Norte 44 Norte 0 987.5 0.1 73
2017-07-31 15:00:00 18.2 28 Norte 43 Norte 0 987.3 -0.3 77
2017-07-31 14:00:00 17.9 22 Norte 37 Norte 0 987.4 -0.1 79
2017-07-31 13:00:00 17.2 21 Norte 26 Norte 0 987.4 -0.3 83
2017-07-31 12:00:00 16.9 14 Norte 19 Norte 0 987.6 0 84
2017-07-31 11:00:00 16.4 13 Norte 17 Nordeste 0 987.5 0.3 86
2017-07-31 10:00:00 16.4 10 Norte 17 Nordeste 0 987.7 0.6 87
2017-07-31 09:00:00 16.3 10 Nordeste 14 Nordeste 0 987.6 0.6 87
2017-07-31 08:00:00 15.1 12 Norte 15 Norte 0 987.2 0 94
2017-07-31 07:00:00 15.1 11 Norte 17 Norte 0 987.1 -0.5 94
2017-07-31 06:00:00 15.2 12 Norte 17 Nordeste 0 987 -1 93
2017-07-31 05:00:00 15.3 12 Norte 17 Norte 0 987.2 -1 92
2017-07-31 04:00:00 15.4 8 Norte 15 Norte 0 987.6 -1.3 90
2017-07-31 03:00:00 15.6 9 Norte 14 Norte 0 988 -1 89
2017-07-31 02:00:00 15.8 9 Norte 12 Norte 0 988.2 -1.3 88
2017-07-31 01:00:00 15.9 4 Norte 13 Norte 0 988.9 -0.3 87
2017-07-31 00:00:00 16.3 10 Norte 17 Norte 0 989 -0.2 84
2017-07-30 23:00:00 16.3 8 Noroeste 14 Noroeste 0 989.5 0.5 82
2017-07-30 22:00:00 16.4 10 Noroeste 18 Noroeste 0 989.2 -0.1 84
2017-07-30 21:00:00 16.7 8 Oeste 18 Oeste 0 989.2 0 81
2017-07-30 20:00:00 16.9 8 Oeste 17 Noroeste 0 989 -0.6 79
2017-07-30 19:00:00 18 6 Oeste 17 Oeste 0 989.3 -0.6 75
2017-07-30 18:00:00 18.9 12 Oeste 23 Noroeste 0 989.2 -0.7 73
2017-07-30 17:00:00 18.8 14 Oeste 28 Oeste 0 989.6 0 74
2017-07-30 16:00:00 18.7 23 Oeste 32 Oeste 0 989.9 0.2 73
2017-07-30 15:00:00 17.7 19 Oeste 32 Oeste 0 989.9 0.2 81
2017-07-30 14:00:00 19.2 17 Oeste 24 Oeste 0 989.6 0.4 78
2017-07-30 13:00:00 18.4 15 Oeste 29 Oeste 0 989.7 0.5 80
2017-07-30 12:00:00 16.8 19 Oeste 27 Oeste 0 989.7 0.6 93
2017-07-30 11:00:00 17.7 14 Sudoeste 25 Sudoeste 0 989.2 0.2 93
2017-07-30 10:00:00 16.7 16 Sudoeste 24 Sudoeste 0 989.2 0.2 94
2017-07-30 09:00:00 16.3 17 Sudoeste 24 Oeste 0 989.1 -0.1 94
2017-07-30 08:00:00 16 15 Sudoeste 24 Sudoeste 0 989 -0.4 94
2017-07-30 07:00:00 15.8 16 Sudoeste 22 Sudoeste 0 989 -0.7 94
2017-07-30 06:00:00 15.7 14 Sudoeste 19 Sudoeste 0 989.2 -1 94
2017-07-30 05:00:00 15.5 13 Oeste 19 Oeste 0 989.4 -0.9 92
2017-07-30 04:00:00 16 17 Oeste 26 Oeste 0 989.7 -0.6 92
2017-07-30 03:00:00 16.3 18 Oeste 24 Oeste 0 990.2 -0.1 92
2017-07-30 02:00:00 16.5 17 Oeste 23 Oeste 0 990.3 0.3 94
2017-07-30 01:00:00 16.4 18 Noroeste 44 Noroeste 0 990.3 0.7 92
2017-07-30 00:00:00 16.2 21 Noroeste 45 Noroeste 0 990.3 0.8 95
2017-07-29 23:00:00 17.2 22 Noroeste 46 Sudoeste 0.2 990 0.7 95
2017-07-29 22:00:00 17.5 30 Sudoeste 40 Sudoeste 0 989.6 0.1 95
2017-07-29 21:00:00 17.3 33 Sudoeste 47 Sudoeste 0 989.5 0.1 94
2017-07-29 20:00:00 17.5 36 Sudoeste 48 Sudoeste 0 989.3 -0.2 94
2017-07-29 19:00:00 18.2 39 Sudoeste 55 Sudoeste 0 989.5 -0.3 93
2017-07-29 18:00:00 17.5 40 Sudoeste 61 Sudoeste 0.4 989.4 -0.3 94
2017-07-29 17:00:00 18 41 Sudoeste 54 Sudoeste 0 989.5 -0.4 92
2017-07-29 16:00:00 20 41 Sudoeste 57 Sudoeste 0 989.8 -0.1 91
2017-07-29 15:00:00 19.5 43 Sudoeste 59 Sudoeste 0 989.7 -0.3 94
2017-07-29 14:00:00 18.1 45 Sudoeste 58 Sudoeste 0 989.9 0 95
2017-07-29 13:00:00 17.6 40 Sudoeste 54 Sudoeste 0 989.9 -0.2 95
2017-07-29 12:00:00 17.5 36 Sudoeste 47 Sudoeste 0 990 0.1 95
2017-07-29 11:00:00 17.2 31 Sudoeste 44 Sudoeste 0 989.9 0.5 95
2017-07-29 10:00:00 17.3 32 Sudoeste 44 Sudoeste 0.2 990.1 0.5 95
2017-07-29 09:00:00 17.5 37 Sudoeste 47 Sudoeste 0.8 989.9 0.2 95
2017-07-29 08:00:00 17 31 Sudoeste 44 Sudoeste 0.4 989.4 -0.5 95
2017-07-29 07:00:00 17.6 22 Sudoeste 35 Sudoeste 0 989.6 -0.6 95
2017-07-29 06:00:00 17.9 25 Sudoeste 33 Sudoeste 0.2 989.7 -0.6 95
2017-07-29 05:00:00 17.5 24 Sudoeste 36 Sudoeste 0 989.9 -0.7 95
2017-07-29 04:00:00 17.9 26 Sudoeste 39 Sudoeste 0 990.2 -0.6 95
2017-07-29 03:00:00 17.5 32 Sudoeste 38 Sudoeste 0.2 990.3 -1 95
2017-07-29 02:00:00 17.2 27 Sudoeste 38 Sudoeste 0 990.6 -1.2 95
2017-07-29 01:00:00 17.3 28 Sudoeste 36 Sur 0.2 990.8 -0.7 95
2017-07-29 00:00:00 17.3 21 Sudoeste 29 Sudoeste 0 991.3 -0.1 95
2017-07-28 23:00:00 17.2 22 Sudoeste 33 Sudoeste 0.4 991.8 0.2 95
2017-07-28 22:00:00 17.5 19 Sur 32 Sur 1.2 991.5 -0.2 95
2017-07-28 21:00:00 17.3 22 Sur 35 Sur 0.4 991.4 -0.5 94
2017-07-28 20:00:00 17.3 19 Sur 35 Sur 0 991.6 -0.4 94
2017-07-28 19:00:00 17.2 22 Sur 36 Sur 0 991.7 -0.4 93
2017-07-28 18:00:00 16.7 23 Sur 37 Sur 0.8 991.9 -0.3 94
2017-07-28 17:00:00 16.6 25 Sur 31 Sur 0.2 992 -0.2 90
2017-07-28 16:00:00 17.9 18 Sur 35 Sur 0 992.1 0.1 80
2017-07-28 15:00:00 17.3 20 Sur 32 Sur 0 992.2 0.4 84
2017-07-28 14:00:00 19 17 Sur 36 Sur 0 992.2 0.5 74
2017-07-28 13:00:00 18.6 21 Sur 31 Sur 0 992 0.2 79
2017-07-28 12:00:00 19.1 14 Sur 26 Sur 0 991.8 0.2 80
2017-07-28 11:00:00 18.9 17 Sur 24 Sur 0 991.7 0.2 74
2017-07-28 10:00:00 17.6 14 Sur 23 Sur 0 991.8 0.6 80
2017-07-28 09:00:00 16.7 14 Sur 21 Sudoeste 0 991.6 0.5 84
2017-07-28 08:00:00 15.8 11 Sur 17 Sudoeste 0 991.5 0.4 88
2017-07-28 07:00:00 15.3 9 Sur 14 Sur 0 991.2 -0.1 85
2017-07-28 06:00:00 15.1 9 Sudoeste 11 Sudoeste 0 991.1 -0.2 83
2017-07-28 05:00:00 15 6 Sudoeste 11 Sudoeste 0 991.1 -0.3 82
2017-07-28 04:00:00 15.6 6 Oeste 6 Oeste 0 991.3 -0.1 79
2017-07-28 03:00:00 15.6 0 Calma 4 Nordeste 0 991.3 -0.2 79
2017-07-28 02:00:00 16.1 3 Este 8 Nordeste 0 991.4 -0.1 76
2017-07-28 01:00:00 16.4 5 Norte 13 Nordeste 0 991.4 0.3 76
2017-07-28 00:00:00 15.9 13 Nordeste 18 Norte 0 991.5 0.8 79
2017-07-27 23:00:00 16.9 14 Norte 27 Norte 0 991.5 1.2 75
2017-07-27 22:00:00 17.1 18 Norte 29 Norte 0 991.1 0.9 83
2017-07-27 21:00:00 17.7 17 Norte 32 Norte 0 990.7 0.4 74
2017-07-27 20:00:00 19 17 Norte 30 Norte 0 990.3 -0.3 65
2017-07-27 19:00:00 19.5 18 Norte 28 Norte 0 990.2 -0.3 74
2017-07-27 18:00:00 20.2 16 Norte 28 Norte 0 990.3 -0.2 77
2017-07-27 17:00:00 18.6 20 Norte 28 Norte 0 990.6 0.1 90
2017-07-27 16:00:00 18.6 14 Sudoeste 26 Sudoeste 0.2 990.5 0 94
2017-07-27 15:00:00 18.1 18 Sudoeste 31 Sudoeste 0.2 990.5 0.2 95
2017-07-27 14:00:00 17.3 19 Sudoeste 32 Sudoeste 0.4 990.5 0.3 95
2017-07-27 13:00:00 16.9 20 Sur 37 Sur 0.8 990.5 0.3 95
2017-07-27 12:00:00 16.6 26 Sur 37 Sur 0.2 990.3 0.2 95
2017-07-27 11:00:00 16.6 24 Sur 36 Sudoeste 0.4 990.2 0.3 95
2017-07-27 10:00:00 16.8 19 Sur 31 Sudoeste 0 990.2 0.4 95
2017-07-27 09:00:00 17.7 14 Sudoeste 22 Sudoeste 0.2 990.1 0.4 95
2017-07-27 08:00:00 18 18 Oeste 25 Oeste 0 989.9 0 95
2017-07-27 07:00:00 17.9 15 Oeste 22 Oeste 0 989.8 -0.3 95
2017-07-27 06:00:00 17.8 14 Oeste 19 Oeste 0.2 989.7 -0.6 94
2017-07-27 05:00:00 17.7 11 Sudoeste 15 Sudoeste 0 989.9 -0.6 94
2017-07-27 04:00:00 17.6 12 Oeste 21 Oeste 0 990.1 -0.8 94
2017-07-27 03:00:00 17.6 12 Oeste 21 Oeste 0 990.3 -0.9 94
2017-07-27 02:00:00 17.4 10 Noroeste 18 Noroeste 0 990.5 -0.6 93
2017-07-27 01:00:00 17.1 12 Noroeste 22 Noroeste 0 990.9 0.3 92
2017-07-27 00:00:00 17.2 11 Noroeste 22 Norte 0 991.2 0.7 90
2017-07-26 23:00:00 17.4 11 Noroeste 21 Norte 0 991.1 0.7 86
2017-07-26 22:00:00 18 13 Norte 27 Norte 0 990.6 -0.1 82
2017-07-26 21:00:00 19 19 Norte 32 Norte 0 990.5 -0.4 76
2017-07-26 20:00:00 19.6 23 Norte 35 Norte 0 990.4 -0.9 73
2017-07-26 19:00:00 19.6 23 Norte 37 Norte 0 990.7 -1 71
2017-07-26 18:00:00 20 21 Norte 36 Norte 0 990.9 -1 69
2017-07-26 17:00:00 19.2 27 Norte 34 Norte 0 991.3 -0.8 71
2017-07-26 16:00:00 19.3 22 Norte 29 Norte 0 991.7 -0.5 69
2017-07-26 15:00:00 20.3 15 Norte 28 Norte 0 991.9 0.2 64
2017-07-26 14:00:00 18.8 20 Norte 34 Norte 0 992.1 0.3 70
2017-07-26 13:00:00 18.7 20 Norte 37 Norte 0 992.2 0.6 72
2017-07-26 12:00:00 17.8 27 Norte 42 Norte 0 991.7 0.7 75
2017-07-26 11:00:00 17.3 29 Norte 49 Norte 0 991.8 1 77
2017-07-26 10:00:00 16.8 31 Norte 53 Nordeste 0 991.6 1.4 80
2017-07-26 09:00:00 16.1 31 Norte 46 Norte 0 991 0.5 82
2017-07-26 08:00:00 15.3 36 Nordeste 52 Nordeste 0 990.8 0.2 86
2017-07-26 07:00:00 14.4 37 Nordeste 45 Nordeste 0 990.2 -0.8 91
2017-07-26 06:00:00 14.6 32 Nordeste 45 Nordeste 0 990.5 -1 90
2017-07-26 05:00:00 14.9 29 Nordeste 40 Nordeste 0 990.6 -1.5 90
2017-07-26 04:00:00 15.2 30 Nordeste 50 Nordeste 0 991 -1.1 89
2017-07-26 03:00:00 15.2 35 Nordeste 48 Nordeste 0 991.5 -0.9 89
2017-07-26 02:00:00 15.6 35 Nordeste 53 Nordeste 0 992.1 -0.7 89
2017-07-26 01:00:00 15.8 37 Nordeste 62 Nordeste 0 992.1 -0.7 89
2017-07-26 00:00:00 16 40 Nordeste 57 Nordeste 0 992.4 -0.6 90
2017-07-25 23:00:00 15.8 30 Nordeste 49 Norte 0 992.8 -0.2 93
2017-07-25 22:00:00 15.9 28 Norte 46 Norte 0 992.8 -0.2 91
2017-07-25 21:00:00 16.8 26 Norte 50 Norte 0 993 0 84
2017-07-25 20:00:00 17.4 30 Norte 55 Norte 0 993 -0.2 81
2017-07-25 19:00:00 17.3 32 Norte 65 Nordeste 0 993 -0.4 79
2017-07-25 18:00:00 17.2 41 Norte 68 Norte 0 993 -1.1 78
2017-07-25 17:00:00 17.6 39 Norte 59 Norte 0 993.2 -1.3 75
2017-07-25 16:00:00 18.4 36 Nordeste 59 Nordeste 0 993.4 -1.5 72
2017-07-25 15:00:00 19.1 34 Nordeste 59 Norte 0 994.1 -1 69
2017-07-25 14:00:00 18.8 42 Norte 65 Norte 0 994.5 -0.9 67
2017-07-25 13:00:00 17.9 33 Norte 51 Norte 0 994.9 -0.7 70
2017-07-25 12:00:00 18.4 26 Nordeste 44 Norte 0 995.1 -0.7 69
2017-07-25 11:00:00 17.6 26 Nordeste 64 Nordeste 0 995.4 -0.2 72
2017-07-25 10:00:00 16.7 28 Nordeste 51 Nordeste 0 995.6 0.1 75
2017-07-25 09:00:00 15.8 30 Nordeste 51 Nordeste 0 995.8 0.2 81
2017-07-25 08:00:00 15.1 31 Nordeste 46 Nordeste 0 995.6 -0.2 83
2017-07-25 07:00:00 14.7 28 Nordeste 47 Nordeste 0 995.5 -0.7 84
2017-07-25 06:00:00 15.3 27 Nordeste 50 Nordeste 0 995.6 -1.1 84
2017-07-25 05:00:00 15.2 35 Nordeste 58 Nordeste 0 995.8 -1.1 86
2017-07-25 04:00:00 15.4 29 Nordeste 45 Norte 0 996.2 -1 90
2017-07-25 03:00:00 15.3 27 Nordeste 43 Nordeste 0 996.7 -0.7 92
2017-07-25 02:00:00 15.3 31 Nordeste 48 Nordeste 0 996.9 -1 91
2017-07-25 01:00:00 15.5 33 Nordeste 59 Nordeste 0 997.2 -0.6 89
2017-07-25 00:00:00 15.4 32 Nordeste 50 Nordeste 0 997.4 -0.4 91
2017-07-24 23:00:00 15.5 30 Nordeste 44 Nordeste 0 997.9 0.1 85
2017-07-24 22:00:00 16.1 27 Nordeste 45 Nordeste 0 997.8 0 82
2017-07-24 21:00:00 16.1 24 Nordeste 51 Nordeste 0 997.8 -0.2 87
2017-07-24 20:00:00 17.4 33 Norte 54 Norte 0 997.8 -0.3 82
2017-07-24 19:00:00 18.2 32 Norte 55 Nordeste 0 997.8 -0.8 81
2017-07-24 18:00:00 17.8 30 Norte 56 Norte 0 998 -0.6 82
2017-07-24 17:00:00 18.1 28 Norte 53 Norte 0 998.1 -0.5 79
2017-07-24 16:00:00 18.1 26 Norte 53 Norte 0 998.6 -0.2 78
2017-07-24 15:00:00 17.7 28 Norte 45 Norte 0 998.6 -0.1 86
2017-07-24 14:00:00 17.5 26 Norte 44 Norte 0 998.6 0 81
2017-07-24 13:00:00 16.9 26 Norte 43 Norte 0 998.8 0.7 87
2017-07-24 12:00:00 16.1 27 Norte 47 Norte 0 998.7 0.7 93
2017-07-24 11:00:00 15.7 26 Nordeste 42 Nordeste 0 998.6 1.2 95
2017-07-24 10:00:00 15.7 26 Nordeste 40 Nordeste 0 998.1 0.9 95
2017-07-24 09:00:00 15.4 26 Norte 37 Norte 0 998 1.1 95
2017-07-24 08:00:00 15.3 21 Norte 41 Norte 0 997.4 0.4 95
2017-07-24 07:00:00 15.3 28 Norte 46 Nordeste 0 997.2 -0.1 95
2017-07-24 06:00:00 15.4 29 Norte 43 Norte 0 996.9 -0.3 95
2017-07-24 05:00:00 15.7 21 Norte 33 Norte 0 997 -0.4 95
2017-07-24 04:00:00 15.7 18 Norte 45 Norte 0 997.3 0 95
2017-07-24 03:00:00 16 24 Norte 40 Norte 0 997.2 -0.1 95
2017-07-24 02:00:00 16.4 21 Norte 37 Norte 0 997.4 0.4 95
2017-07-24 01:00:00 16.9 19 Norte 37 Norte 0 997.3 0.9 95
2017-07-24 00:00:00 16.6 21 Norte 37 Norte 0 997.3 0.9 95
2017-07-23 23:00:00 17.4 20 Norte 40 Norte 0 997 0.8 95
2017-07-23 22:00:00 17.4 22 Norte 43 Norte 0 996.4 0.1 95
2017-07-23 21:00:00 17.4 16 Noroeste 34 Noroeste 0 996.4 0.2 95
2017-07-23 20:00:00 17.3 17 Noroeste 37 Norte 0 996.2 -0.4 94
2017-07-23 19:00:00 17.6 15 Noroeste 36 Noroeste 0 996.3 -0.4 93
2017-07-23 18:00:00 18.3 20 Noroeste 32 Noroeste 0 996.2 -0.6 90
2017-07-23 17:00:00 19.2 15 Noroeste 25 Noroeste 0 996.6 -0.2 85
2017-07-23 16:00:00 19 15 Noroeste 23 Noroeste 0 996.7 0.1 85
2017-07-23 15:00:00 19.1 10 Noroeste 24 Noroeste 0 996.8 0.4 84
2017-07-23 14:00:00 18.7 12 Noroeste 20 Noroeste 0 996.8 0.5 86
2017-07-23 13:00:00 18.3 9 Noroeste 18 Noroeste 0 996.6 0.4 86
2017-07-23 12:00:00 17.2 9 Norte 22 Noroeste 0 996.4 0.6 89
2017-07-23 11:00:00 17.1 16 Norte 23 Noroeste 0 996.3 1 89
2017-07-23 10:00:00 16.2 13 Norte 23 Norte 0 996.2 1.4 87
2017-07-23 09:00:00 16.3 16 Norte 27 Norte 0 995.8 1.1 85
2017-07-23 08:00:00 16 19 Norte 28 Norte 0 995.3 0.8 84
2017-07-23 07:00:00 15.4 15 Norte 22 Norte 0 994.8 0.1 90
2017-07-23 06:00:00 15.5 11 Norte 15 Norte 0 994.7 -0.2 84
2017-07-23 05:00:00 15.6 10 Norte 20 Norte 0 994.5 -0.6 86
2017-07-23 04:00:00 15.7 14 Norte 27 Norte 0 994.7 -0.2 79
2017-07-23 03:00:00 15.6 15 Norte 26 Norte 0 994.9 0 75
2017-07-23 02:00:00 15.9 17 Norte 33 Norte 0 995.1 0.4 74
2017-07-23 01:00:00 15.7 22 Nordeste 33 Norte 0 994.9 0.8 73
2017-07-23 00:00:00 15.5 23 Norte 32 Nordeste 0 994.9 1.3 80
2017-07-22 23:00:00 15.6 17 Norte 27 Norte 0 994.7 1.4 78
2017-07-22 22:00:00 16.1 18 Norte 30 Norte 0 994.1 1 78
2017-07-22 21:00:00 17.4 17 Norte 30 Norte 0 993.6 0.8 70
2017-07-22 20:00:00 18.7 15 Norte 26 Norte 0 993.3 0.7 67
2017-07-22 19:00:00 18.1 19 Norte 32 Norte 0 993.1 0.5 70
2017-07-22 18:00:00 18.4 19 Norte 30 Norte 0 992.8 0.3 71
2017-07-22 17:00:00 18.8 12 Noroeste 23 Norte 0 992.6 0.6 69
2017-07-22 16:00:00 18.8 10 Noroeste 22 Noroeste 0 992.6 1.1 69
2017-07-22 15:00:00 18.2 12 Noroeste 23 Noroeste 0 992.5 1.5 71
2017-07-22 14:00:00 18.4 9 Noroeste 19 Norte 0 992 1.4 72
2017-07-22 13:00:00 17.5 14 Norte 19 Norte 0 991.5 1.4 73
2017-07-22 12:00:00 17.8 11 Norte 22 Norte 0 991 1.5 74
2017-07-22 11:00:00 16.6 17 Norte 23 Norte 0 990.6 1.7 86
2017-07-22 10:00:00 15.7 14 Norte 25 Norte 0 990.1 1.5 91
2017-07-22 09:00:00 15.3 20 Norte 33 Norte 0 989.5 1 91
2017-07-22 08:00:00 14.6 20 Norte 30 Norte 2 988.9 0.7 94
2017-07-22 07:00:00 15.6 13 Noroeste 23 Noroeste 0 988.6 0.2 95
2017-07-22 06:00:00 15.3 13 Noroeste 37 Oeste 0 988.5 -0.1 95
2017-07-22 05:00:00 16.3 28 Oeste 41 Oeste 0 988.2 -0.6 95
2017-07-22 04:00:00 16 24 Oeste 32 Oeste 0 988.4 -0.3 95
2017-07-22 03:00:00 16 22 Oeste 28 Oeste 0 988.6 -0.3 95
2017-07-22 02:00:00 15.9 21 Oeste 36 Noroeste 0 988.8 -0.1 95
2017-07-22 01:00:00 16 22 Oeste 38 Noroeste 0.2 988.7 -0.1 94
2017-07-22 00:00:00 16.5 28 Oeste 32 Oeste 0 988.9 0.4 93